createdAt,value
2019-03-12T00:00:51.618Z,0.55
2019-03-12T00:01:58.680Z,0.60
2019-03-12T00:03:03.400Z,0.63
2019-03-12T00:04:07.998Z,0.62
2019-03-12T00:05:12.262Z,0.68
2019-03-12T00:06:16.826Z,0.73
2019-03-12T00:07:21.094Z,0.74
2019-03-12T00:08:25.428Z,0.75
2019-03-12T00:09:29.694Z,0.81
2019-03-12T00:10:33.965Z,0.79
2019-03-12T00:11:38.218Z,0.80
2019-03-12T00:12:46.286Z,0.85
2019-03-12T00:13:50.582Z,0.87
2019-03-12T00:14:57.641Z,0.89
2019-03-12T00:16:04.351Z,0.94
2019-03-12T00:17:08.659Z,1.00
2019-03-12T00:18:16.197Z,1.00
2019-03-12T00:19:20.447Z,1.07
2019-03-12T00:20:30.295Z,1.03
2019-03-12T00:21:34.847Z,1.03
2019-03-12T00:22:41.825Z,1.07
2019-03-12T00:23:46.114Z,1.08
2019-03-12T00:24:53.089Z,1.08
2019-03-12T00:26:00.032Z,1.07
2019-03-12T00:27:04.300Z,1.12
2019-03-12T00:28:08.572Z,1.18
2019-03-12T00:29:14.497Z,1.16
2019-03-12T00:30:19.028Z,1.16
2019-03-12T00:31:26.254Z,1.19
2019-03-12T00:32:30.510Z,1.15
2019-03-12T00:33:37.483Z,1.24
2019-03-12T00:34:44.869Z,1.24
2019-03-12T00:35:49.141Z,1.21
2019-03-12T00:36:56.059Z,1.21
2019-03-12T00:38:03.021Z,1.20
2019-03-12T00:39:07.404Z,1.26
2019-03-12T00:40:13.566Z,1.24
2019-03-12T00:41:20.113Z,1.27
2019-03-12T00:42:23.805Z,1.29
2019-03-12T00:43:28.066Z,1.31
2019-03-12T00:44:35.334Z,1.32
2019-03-12T00:45:39.609Z,1.31
2019-03-12T00:46:43.861Z,1.30
2019-03-12T00:47:51.047Z,1.25
2019-03-12T00:48:55.339Z,1.29
2019-03-12T00:50:02.887Z,1.35
2019-03-12T00:51:07.207Z,1.35
2019-03-12T00:52:14.358Z,1.33
2019-03-12T00:53:18.625Z,1.41
2019-03-12T00:54:22.926Z,1.43
2019-03-12T00:55:29.826Z,1.34
2019-03-12T00:56:34.095Z,1.35
2019-03-12T00:57:38.349Z,1.32
2019-03-12T00:58:42.634Z,1.29
2019-03-12T00:59:49.629Z,1.31
2019-03-12T01:00:53.889Z,1.26
2019-03-12T01:02:00.834Z,1.26
2019-03-12T01:03:07.967Z,1.30
2019-03-12T01:04:12.255Z,1.24
2019-03-12T01:05:16.505Z,1.25
2019-03-12T01:06:23.423Z,1.23
2019-03-12T01:07:27.793Z,1.25
2019-03-12T01:08:32.407Z,1.19
2019-03-12T01:09:36.680Z,1.22
2019-03-12T01:10:43.674Z,1.22
2019-03-12T01:11:48.042Z,1.23
2019-03-12T01:12:55.164Z,1.28
2019-03-12T01:13:59.443Z,1.20
2019-03-12T01:15:09.003Z,1.13
2019-03-12T01:16:13.258Z,1.18
2019-03-12T01:17:17.677Z,1.16
2019-03-12T01:18:22.327Z,1.16
2019-03-12T01:19:27.055Z,1.14
2019-03-12T01:20:31.350Z,1.15
2019-03-12T01:21:35.597Z,1.16
2019-03-12T01:22:39.842Z,1.19
2019-03-12T01:23:44.100Z,1.14
2019-03-12T01:24:51.322Z,1.21
2019-03-12T01:25:55.611Z,1.16
2019-03-12T01:26:59.866Z,1.16
2019-03-12T01:28:07.328Z,1.13
2019-03-12T01:29:12.689Z,1.15
2019-03-12T01:30:19.885Z,1.13
2019-03-12T01:31:27.149Z,1.19
2019-03-12T01:32:31.415Z,1.16
2019-03-12T01:33:38.655Z,1.18
2019-03-12T01:34:42.962Z,1.16
2019-03-12T01:35:50.049Z,1.19
2019-03-12T01:36:54.311Z,1.18
2019-03-12T01:37:58.573Z,1.19
2019-03-12T01:39:02.843Z,1.21
2019-03-12T01:40:13.319Z,1.25
2019-03-12T01:41:17.602Z,1.23
2019-03-12T01:42:21.898Z,1.22
2019-03-12T01:43:26.502Z,1.19
2019-03-12T01:44:33.738Z,1.21
2019-03-12T01:45:37.992Z,1.25
2019-03-12T01:46:42.265Z,1.26
2019-03-12T01:47:46.520Z,1.27
2019-03-12T01:48:50.790Z,1.25
2019-03-12T01:49:55.099Z,1.28
2019-03-12T01:50:59.356Z,1.33
2019-03-12T01:52:03.611Z,1.30
2019-03-12T01:53:08.237Z,1.31
2019-03-12T01:54:12.529Z,1.25
2019-03-12T01:55:17.752Z,1.28
2019-03-12T01:56:24.710Z,1.27
2019-03-12T01:57:29.374Z,1.24
2019-03-12T01:58:33.628Z,1.28
2019-03-12T01:59:38.984Z,1.30
2019-03-12T02:00:43.277Z,1.32
2019-03-12T02:01:47.551Z,1.33
2019-03-12T02:02:54.530Z,1.37
2019-03-12T02:03:58.888Z,1.34
2019-03-12T02:05:03.192Z,1.39
2019-03-12T02:06:08.533Z,1.34
2019-03-12T02:07:15.526Z,1.40
2019-03-12T02:08:19.795Z,1.40
2019-03-12T02:09:25.329Z,1.42
2019-03-12T02:10:33.039Z,1.41
2019-03-12T02:11:37.305Z,1.43
2019-03-12T02:12:41.941Z,1.47
2019-03-12T02:13:46.306Z,1.44
2019-03-12T02:14:53.925Z,1.44
2019-03-12T02:15:58.194Z,1.47
2019-03-12T02:17:02.476Z,1.49
2019-03-12T02:18:06.807Z,1.50
2019-03-12T02:19:14.022Z,1.50
2019-03-12T02:20:21.248Z,1.50
2019-03-12T02:21:25.507Z,1.57
2019-03-12T02:22:32.700Z,1.57
2019-03-12T02:23:37.061Z,1.54
2019-03-12T02:24:52.101Z,1.56
2019-03-12T02:25:47.315Z,1.56
2019-03-12T02:26:51.587Z,1.61
2019-03-12T02:27:55.851Z,1.62
2019-03-12T02:29:03.680Z,1.64
2019-03-12T02:30:11.057Z,1.61
2019-03-12T02:31:15.388Z,1.60
2019-03-12T02:32:19.664Z,1.66
2019-03-12T02:33:24.020Z,1.66
2019-03-12T02:34:28.624Z,1.64
2019-03-12T02:35:32.905Z,1.67
2019-03-12T02:36:37.478Z,1.72
2019-03-12T02:37:42.052Z,1.74
2019-03-12T02:38:46.313Z,1.74
2019-03-12T02:39:50.719Z,1.78
2019-03-12T02:40:58.048Z,1.75
2019-03-12T02:42:02.341Z,1.75
2019-03-12T02:43:09.508Z,1.77
2019-03-12T02:44:17.959Z,1.83
2019-03-12T02:45:24.933Z,1.85
2019-03-12T02:46:31.903Z,1.83
2019-03-12T02:47:36.195Z,1.79
2019-03-12T02:48:40.485Z,1.78
2019-03-12T02:49:47.701Z,1.79
2019-03-12T02:50:51.994Z,1.82
2019-03-12T02:51:56.255Z,1.77
2019-03-12T02:53:00.539Z,1.83
2019-03-12T02:54:05.082Z,1.83
2019-03-12T02:55:09.729Z,1.85
2019-03-12T02:56:14.031Z,1.85
2019-03-12T02:57:18.467Z,1.84
2019-03-12T02:58:25.417Z,1.87
2019-03-12T02:59:32.687Z,1.91
2019-03-12T03:00:36.975Z,1.91
2019-03-12T03:01:41.229Z,1.90
2019-03-12T03:02:48.195Z,1.92
2019-03-12T03:03:52.481Z,1.96
2019-03-12T03:04:56.756Z,1.94
2019-03-12T03:06:05.698Z,1.97
2019-03-12T03:07:20.774Z,1.97
2019-03-12T03:08:26.688Z,1.98
2019-03-12T03:09:30.958Z,1.98
2019-03-12T03:10:38.202Z,1.98
2019-03-12T03:11:42.496Z,1.95
2019-03-12T03:12:46.764Z,1.98
2019-03-12T03:13:53.747Z,1.99
2019-03-12T03:15:04.946Z,2.02
2019-03-12T03:16:08.923Z,2.08
2019-03-12T03:17:14.537Z,2.12
2019-03-12T03:18:19.093Z,2.08
2019-03-12T03:19:23.365Z,2.07
2019-03-12T03:20:28.053Z,2.13
2019-03-12T03:21:32.353Z,2.15
2019-03-12T03:22:38.250Z,2.10
2019-03-12T03:23:44.579Z,2.12
2019-03-12T03:24:48.958Z,2.11
2019-03-12T03:25:56.241Z,2.13
2019-03-12T03:27:00.476Z,2.12
2019-03-12T03:28:07.508Z,2.16
2019-03-12T03:29:14.951Z,2.21
2019-03-12T03:30:23.557Z,2.26
2019-03-12T03:31:27.914Z,2.21
2019-03-12T03:32:32.689Z,2.16
2019-03-12T03:33:36.969Z,2.25
2019-03-12T03:34:41.276Z,2.30
2019-03-12T03:35:45.571Z,2.29
2019-03-12T03:36:52.757Z,2.34
2019-03-12T03:38:00.019Z,2.34
2019-03-12T03:39:05.798Z,2.38
2019-03-12T03:40:17.172Z,2.36
2019-03-12T03:41:21.457Z,2.31
2019-03-12T03:42:26.015Z,2.36
2019-03-12T03:43:33.174Z,2.40
2019-03-12T03:44:40.117Z,2.36
2019-03-12T03:45:44.384Z,2.36
2019-03-12T03:46:48.650Z,2.42
2019-03-12T03:47:52.916Z,2.39
2019-03-12T03:49:00.396Z,2.42
2019-03-12T03:50:06.712Z,2.43
2019-03-12T03:51:11.030Z,2.39
2019-03-12T03:52:15.331Z,2.42
2019-03-12T03:53:19.607Z,2.45
2019-03-12T03:54:23.848Z,2.46
2019-03-12T03:55:28.584Z,2.49
2019-03-12T03:56:33.283Z,2.51
2019-03-12T03:57:37.573Z,2.52
2019-03-12T03:58:44.524Z,2.53
2019-03-12T03:59:51.450Z,2.53
2019-03-12T04:00:55.704Z,2.55
2019-03-12T04:02:00.003Z,2.56
2019-03-12T04:03:04.282Z,2.56
2019-03-12T04:04:08.535Z,2.56
2019-03-12T04:05:15.746Z,2.55
2019-03-12T04:06:20.030Z,2.61
2019-03-12T04:07:24.441Z,2.62
2019-03-12T04:08:31.550Z,2.61
2019-03-12T04:09:35.816Z,2.64
2019-03-12T04:10:40.101Z,2.64
2019-03-12T04:11:44.388Z,2.62
2019-03-12T04:12:48.643Z,2.60
2019-03-12T04:13:52.910Z,2.60
2019-03-12T04:15:00.019Z,2.63
2019-03-12T04:16:04.336Z,2.68
2019-03-12T04:17:08.607Z,2.67
2019-03-12T04:18:18.508Z,2.65
2019-03-12T04:19:22.780Z,2.67
2019-03-12T04:20:27.015Z,2.71
2019-03-12T04:21:31.332Z,2.69
2019-03-12T04:22:38.533Z,2.69
2019-03-12T04:23:46.228Z,2.68
2019-03-12T04:24:50.522Z,2.68
2019-03-12T04:25:57.902Z,2.70
2019-03-12T04:27:02.183Z,2.69
2019-03-12T04:28:07.452Z,2.69
2019-03-12T04:29:11.685Z,2.67
2019-03-12T04:30:17.174Z,2.69
2019-03-12T04:31:21.438Z,2.72
2019-03-12T04:32:25.726Z,2.72
2019-03-12T04:33:52.934Z,2.69
2019-03-12T04:34:59.875Z,2.71
2019-03-12T04:36:04.133Z,2.72
2019-03-12T04:37:08.444Z,2.68
2019-03-12T04:38:15.665Z,2.69
2019-03-12T04:39:19.931Z,2.69
2019-03-12T04:40:26.866Z,2.70
2019-03-12T04:41:31.131Z,2.71
2019-03-12T04:42:41.029Z,2.71
2019-03-12T04:43:45.287Z,2.72
2019-03-12T04:44:49.544Z,2.71
2019-03-12T04:45:53.950Z,2.70
2019-03-12T04:46:58.431Z,2.71
2019-03-12T04:48:03.113Z,2.68
2019-03-12T04:49:10.157Z,2.71
2019-03-12T04:50:14.910Z,2.70
2019-03-12T04:51:19.883Z,2.70
2019-03-12T04:52:24.385Z,2.69
2019-03-12T04:53:28.659Z,2.70
2019-03-12T04:54:35.954Z,2.68
2019-03-12T04:55:40.377Z,2.70
2019-03-12T04:56:47.395Z,2.72
2019-03-12T04:57:51.675Z,2.70
2019-03-12T04:58:59.599Z,2.71
2019-03-12T05:00:10.525Z,2.73
2019-03-12T05:01:15.171Z,2.71
2019-03-12T05:02:19.776Z,2.71
2019-03-12T05:03:24.030Z,2.70
2019-03-12T05:04:28.295Z,2.72
2019-03-12T05:05:35.659Z,2.75
2019-03-12T05:06:40.010Z,2.73
2019-03-12T05:07:47.319Z,2.71
2019-03-12T05:08:55.211Z,2.69
2019-03-12T05:09:59.492Z,2.69
2019-03-12T05:11:03.876Z,2.68
2019-03-12T05:12:08.324Z,2.67
2019-03-12T05:13:13.102Z,2.65
2019-03-12T05:14:26.783Z,2.67
2019-03-12T05:15:31.369Z,2.65
2019-03-12T05:16:35.639Z,2.63
2019-03-12T05:17:39.930Z,2.63
2019-03-12T05:18:44.183Z,2.60
2019-03-12T05:19:48.477Z,2.55
2019-03-12T05:20:55.532Z,2.57
2019-03-12T05:21:59.799Z,2.57
2019-03-12T05:23:04.466Z,2.58
2019-03-12T05:24:08.746Z,2.58
2019-03-12T05:25:15.863Z,2.55
2019-03-12T05:26:24.142Z,2.55
2019-03-12T05:27:28.429Z,2.52
2019-03-12T05:28:33.817Z,2.54
2019-03-12T05:29:42.949Z,2.48
2019-03-12T05:30:47.567Z,2.43
2019-03-12T05:31:52.246Z,2.45
2019-03-12T05:32:56.850Z,2.47
2019-03-12T05:34:01.122Z,2.51
2019-03-12T05:35:05.745Z,2.51
2019-03-12T05:36:09.992Z,2.55
2019-03-12T05:37:17.415Z,2.60
2019-03-12T05:38:21.699Z,2.54
2019-03-12T05:39:25.954Z,2.50
2019-03-12T05:40:30.218Z,2.45
2019-03-12T05:41:34.481Z,2.45
2019-03-12T05:42:38.761Z,2.50
2019-03-12T05:43:43.345Z,2.48
2019-03-12T05:44:50.261Z,2.49
2019-03-12T05:45:54.530Z,2.47
2019-03-12T05:46:59.127Z,2.46
2019-03-12T05:48:06.394Z,2.48
2019-03-12T05:49:10.666Z,2.44
2019-03-12T05:50:21.658Z,2.46
2019-03-12T05:51:25.918Z,2.44
2019-03-12T05:52:30.515Z,2.47
2019-03-12T05:53:49.482Z,2.45
2019-03-12T05:54:53.749Z,2.48
2019-03-12T05:55:58.050Z,2.48
2019-03-12T05:57:02.646Z,2.44
2019-03-12T05:58:07.223Z,2.44
2019-03-12T05:59:18.130Z,2.46
2019-03-12T06:00:26.685Z,2.47
2019-03-12T06:01:31.175Z,2.42
2019-03-12T06:02:35.470Z,2.40
2019-03-12T06:03:39.739Z,2.43
2019-03-12T06:04:44.023Z,2.41
2019-03-12T06:05:50.983Z,2.44
2019-03-12T06:06:55.666Z,2.47
2019-03-12T06:08:03.445Z,2.41
2019-03-12T06:09:07.721Z,2.41
2019-03-12T06:10:14.120Z,2.41
2019-03-12T06:11:21.398Z,2.41
2019-03-12T06:12:26.425Z,2.41
2019-03-12T06:13:30.707Z,2.40
2019-03-12T06:14:34.958Z,2.44
2019-03-12T06:15:42.173Z,2.37
2019-03-12T06:16:46.584Z,2.42
2019-03-12T06:17:53.575Z,2.44
2019-03-12T06:18:57.825Z,2.42
2019-03-12T06:20:11.116Z,2.41
2019-03-12T06:21:15.377Z,2.44
2019-03-12T06:22:19.973Z,2.44
2019-03-12T06:23:24.268Z,2.43
2019-03-12T06:24:28.491Z,2.44
2019-03-12T06:25:35.678Z,2.47
2019-03-12T06:26:42.858Z,2.45
2019-03-12T06:27:47.277Z,2.45
2019-03-12T06:28:54.573Z,2.49
2019-03-12T06:30:01.737Z,2.54
2019-03-12T06:31:13.836Z,2.53
2019-03-12T06:32:19.721Z,2.50
2019-03-12T06:33:42.218Z,2.58
2019-03-12T06:34:50.962Z,2.59
2019-03-12T06:36:05.330Z,2.55
2019-03-12T06:37:20.359Z,2.57
2019-03-12T06:38:37.839Z,2.61
2019-03-12T06:39:52.930Z,2.56
2019-03-12T06:40:59.166Z,2.56
2019-03-12T06:42:07.712Z,2.60
2019-03-12T06:43:28.369Z,2.62
2019-03-12T06:44:50.721Z,2.62
2019-03-12T06:45:59.065Z,2.58
2019-03-12T06:47:04.966Z,2.58
2019-03-12T06:48:19.598Z,2.61
2019-03-12T06:49:28.926Z,2.62
2019-03-12T06:50:56.383Z,2.65
2019-03-12T06:52:05.360Z,2.68
2019-03-12T06:53:14.598Z,2.72
2019-03-12T06:54:29.320Z,2.75
2019-03-12T06:55:41.926Z,2.73
2019-03-12T06:57:05.585Z,2.79
2019-03-12T06:58:23.236Z,2.73
2019-03-12T06:59:32.269Z,2.71
2019-03-12T07:00:43.730Z,2.72
2019-03-12T07:01:52.658Z,2.73
2019-03-12T07:03:07.608Z,2.84
2019-03-12T07:04:30.060Z,2.87
2019-03-12T07:05:41.881Z,2.88
2019-03-12T07:07:10.990Z,2.90
2019-03-12T07:08:17.086Z,2.83
2019-03-12T07:09:25.454Z,2.87
2019-03-12T07:10:47.610Z,2.80
2019-03-12T07:11:59.599Z,2.84
2019-03-12T07:13:17.545Z,2.84
2019-03-12T07:14:29.163Z,2.86
2019-03-12T07:15:40.716Z,2.92
2019-03-12T07:17:07.989Z,2.94
2019-03-12T07:18:16.800Z,2.97
2019-03-12T07:19:38.992Z,3.00
2019-03-12T07:20:47.634Z,2.94
2019-03-12T07:21:56.512Z,2.90
2019-03-12T07:23:07.592Z,2.99
2019-03-12T07:24:16.197Z,3.06
2019-03-12T07:25:31.034Z,3.06
2019-03-12T07:26:52.079Z,3.14
2019-03-12T07:28:14.314Z,3.15
2019-03-12T07:29:35.184Z,3.21
2019-03-12T07:30:43.650Z,3.25
2019-03-12T07:31:58.782Z,3.32
2019-03-12T07:33:07.613Z,3.29
2019-03-12T07:34:19.259Z,3.35
2019-03-12T07:35:28.220Z,3.43
2019-03-12T07:36:34.169Z,3.44
2019-03-12T07:37:40.060Z,3.39
2019-03-12T07:38:45.947Z,3.34
2019-03-12T07:39:51.831Z,3.36
2019-03-12T07:41:00.822Z,3.39
2019-03-12T07:42:12.723Z,3.43
2019-03-12T07:43:37.222Z,3.44
2019-03-12T07:44:48.996Z,3.48
2019-03-12T07:46:03.701Z,3.42
2019-03-12T07:47:18.864Z,3.39
2019-03-12T07:48:39.608Z,3.41
2019-03-12T07:50:07.066Z,3.57
2019-03-12T07:51:28.949Z,3.60
2019-03-12T07:52:51.141Z,3.54
2019-03-12T07:54:00.045Z,3.51
2019-03-12T07:55:07.163Z,3.49
2019-03-12T07:56:25.837Z,3.45
2019-03-12T07:57:51.068Z,3.51
2019-03-12T07:59:14.361Z,3.48
2019-03-12T08:00:36.487Z,3.53
2019-03-12T08:01:45.092Z,3.46
2019-03-12T08:03:06.131Z,3.51
2019-03-12T08:04:12.032Z,3.54
2019-03-12T08:05:24.211Z,3.49
2019-03-12T08:06:46.731Z,3.59
2019-03-12T08:07:52.673Z,3.62
2019-03-12T08:09:01.212Z,3.64
2019-03-12T08:10:21.475Z,3.61
2019-03-12T08:11:31.014Z,3.74
2019-03-12T08:12:47.316Z,3.84
2019-03-12T08:14:11.281Z,3.83
2019-03-12T08:15:23.253Z,3.85
2019-03-12T08:16:36.217Z,3.87
2019-03-12T08:17:51.003Z,3.96
2019-03-12T08:19:15.231Z,3.94
2019-03-12T08:20:32.417Z,3.89
2019-03-12T08:21:44.603Z,3.87
2019-03-12T08:22:50.549Z,4.01
2019-03-12T08:23:56.472Z,4.07
2019-03-12T08:25:05.354Z,4.07
2019-03-12T08:26:11.251Z,4.01
2019-03-12T08:27:33.358Z,4.01
2019-03-12T08:28:42.353Z,4.07
2019-03-12T08:29:57.341Z,4.00
2019-03-12T08:31:09.358Z,4.08
2019-03-12T08:32:33.787Z,4.23
2019-03-12T08:33:50.435Z,4.32
2019-03-12T08:34:52.405Z,4.21
2019-03-12T08:35:58.307Z,4.28
2019-03-12T08:37:22.011Z,4.42
2019-03-12T08:38:27.978Z,4.29
2019-03-12T08:39:44.613Z,4.53
2019-03-12T08:40:52.784Z,4.44
2019-03-12T08:41:58.147Z,4.57
2019-03-12T08:43:10.195Z,4.48
2019-03-12T08:44:16.082Z,4.56
2019-03-12T08:45:33.931Z,4.52
2019-03-12T08:46:59.255Z,4.59
2019-03-12T08:48:08.239Z,4.59
2019-03-12T08:49:17.110Z,4.53
2019-03-12T08:50:34.585Z,4.52
2019-03-12T08:51:46.118Z,4.61
2019-03-12T08:52:52.010Z,4.50
2019-03-12T08:54:06.763Z,4.58
2019-03-12T08:55:18.835Z,4.64
2019-03-12T08:56:36.337Z,4.61
2019-03-12T08:57:58.423Z,4.60
2019-03-12T08:59:13.289Z,4.79
2019-03-12T09:00:24.117Z,4.87
2019-03-12T09:01:33.151Z,4.81
2019-03-12T09:02:57.030Z,4.82
2019-03-12T09:04:19.245Z,4.89
2019-03-12T09:05:44.579Z,4.80
2019-03-12T09:07:09.206Z,4.74
2019-03-12T09:08:18.195Z,4.75
2019-03-12T09:09:39.337Z,4.82
2019-03-12T09:11:01.702Z,4.83
2019-03-12T09:12:22.833Z,4.83
2019-03-12T09:13:46.474Z,4.80
2019-03-12T09:14:56.162Z,4.84
2019-03-12T09:16:02.139Z,4.95
2019-03-12T09:17:08.192Z,4.98
2019-03-12T09:18:19.430Z,5.01
2019-03-12T09:19:25.357Z,5.12
2019-03-12T09:20:31.255Z,5.10
2019-03-12T09:21:42.492Z,5.09
2019-03-12T09:22:50.701Z,5.10
2019-03-12T09:23:56.530Z,5.29
2019-03-12T09:25:16.275Z,5.29
2019-03-12T09:26:34.422Z,5.37
2019-03-12T09:28:03.966Z,5.31
2019-03-12T09:29:21.843Z,5.30
2019-03-12T09:30:39.552Z,5.16
2019-03-12T09:31:46.961Z,5.11
2019-03-12T09:33:09.438Z,5.14
2019-03-12T09:34:32.767Z,5.23
2019-03-12T09:35:56.750Z,5.30
2019-03-12T09:37:08.474Z,5.64
2019-03-12T09:38:30.700Z,5.83
2019-03-12T09:39:42.679Z,5.97
2019-03-12T09:41:06.844Z,5.94
2019-03-12T09:42:13.819Z,5.91
2019-03-12T09:43:20.079Z,5.82
2019-03-12T09:44:45.539Z,5.78
2019-03-12T09:45:54.405Z,5.87
2019-03-12T09:47:03.100Z,5.89
2019-03-12T09:48:09.038Z,5.81
2019-03-12T09:49:15.004Z,5.92
2019-03-12T09:50:31.382Z,6.05
2019-03-12T09:51:39.991Z,5.86
2019-03-12T09:52:54.780Z,5.92
2019-03-12T09:54:18.752Z,5.90
2019-03-12T09:55:30.492Z,5.93
2019-03-12T09:56:48.579Z,5.86
2019-03-12T09:58:10.933Z,5.89
2019-03-12T09:59:23.309Z,5.87
2019-03-12T10:00:50.723Z,5.64
2019-03-12T10:01:59.436Z,5.86
2019-03-12T10:03:20.573Z,5.77
2019-03-12T10:04:45.103Z,5.95
2019-03-12T10:06:10.109Z,6.00
2019-03-12T10:07:19.225Z,6.09
2019-03-12T10:08:41.539Z,6.15
2019-03-12T10:10:05.083Z,6.28
2019-03-12T10:11:30.311Z,6.10
2019-03-12T10:12:48.277Z,6.11
2019-03-12T10:14:03.002Z,6.18
2019-03-12T10:15:16.705Z,6.24
2019-03-12T10:16:43.822Z,6.45
2019-03-12T10:17:55.355Z,6.59
2019-03-12T10:19:12.670Z,6.83
2019-03-12T10:20:18.580Z,7.17
2019-03-12T10:21:30.267Z,7.01
2019-03-12T10:22:36.152Z,7.00
2019-03-12T10:23:42.067Z,6.98
2019-03-12T10:24:50.769Z,6.79
2019-03-12T10:26:16.130Z,6.77
2019-03-12T10:27:34.024Z,6.91
2019-03-12T10:28:58.560Z,7.10
2019-03-12T10:30:20.908Z,6.97
2019-03-12T10:31:32.193Z,7.11
2019-03-12T10:32:38.090Z,7.28
2019-03-12T10:33:43.997Z,7.25
2019-03-12T10:34:59.047Z,7.35
2019-03-12T10:36:09.632Z,7.50
2019-03-12T10:37:18.398Z,7.48
2019-03-12T10:39:09.965Z,7.47
2019-03-12T10:40:18.766Z,7.24
2019-03-12T10:41:27.291Z,7.34
2019-03-12T10:43:01.737Z,7.66
2019-03-12T10:44:10.310Z,7.86
2019-03-12T10:45:19.125Z,8.21
2019-03-12T10:46:28.123Z,8.39
2019-03-12T10:47:37.316Z,8.58
2019-03-12T10:48:41.677Z,8.07
2019-03-12T10:49:48.709Z,7.99
2019-03-12T10:50:52.967Z,7.83
2019-03-12T10:51:57.318Z,7.61
2019-03-12T10:53:04.577Z,7.51
2019-03-12T10:54:08.843Z,7.53
2019-03-12T10:55:16.358Z,7.59
2019-03-12T10:56:20.614Z,7.62
2019-03-12T10:57:27.673Z,7.25
2019-03-12T10:58:31.939Z,7.43
2019-03-12T10:59:39.560Z,7.59
2019-03-12T11:00:46.869Z,7.52
2019-03-12T11:01:53.862Z,7.48
2019-03-12T11:02:58.117Z,7.47
2019-03-12T11:04:05.048Z,7.46
2019-03-12T11:05:09.313Z,7.54
2019-03-12T11:06:16.535Z,7.61
2019-03-12T11:07:20.812Z,7.78
2019-03-12T11:08:26.672Z,7.71
2019-03-12T11:09:30.967Z,7.67
2019-03-12T11:10:35.176Z,7.56
2019-03-12T11:11:39.888Z,7.46
2019-03-12T11:12:44.117Z,7.49
2019-03-12T11:13:48.404Z,7.32
2019-03-12T11:14:52.642Z,7.45
2019-03-12T11:15:59.841Z,7.59
2019-03-12T11:17:06.921Z,7.45
2019-03-12T11:18:11.181Z,7.27
2019-03-12T11:19:18.411Z,7.24
2019-03-12T11:20:25.844Z,7.28
2019-03-12T11:21:30.495Z,7.27
2019-03-12T11:22:37.817Z,7.16
2019-03-12T11:23:42.395Z,7.12
2019-03-12T11:24:46.640Z,7.03
2019-03-12T11:25:53.732Z,7.13
2019-03-12T11:26:58.378Z,7.23
2019-03-12T11:28:05.527Z,7.51
2019-03-12T11:29:12.739Z,7.69
2019-03-12T11:30:20.630Z,7.70
2019-03-12T11:31:28.087Z,7.58
2019-03-12T11:32:32.369Z,7.59
2019-03-12T11:33:36.932Z,7.58
2019-03-12T11:34:42.041Z,7.66
2019-03-12T11:35:49.639Z,7.70
2019-03-12T11:36:57.998Z,7.76
2019-03-12T11:38:02.456Z,7.64
2019-03-12T11:39:07.105Z,7.58
2019-03-12T11:40:31.618Z,7.68
2019-03-12T11:41:35.763Z,7.89
2019-03-12T11:42:40.502Z,8.00
2019-03-12T11:43:44.814Z,8.26
2019-03-12T11:44:53.481Z,8.47
2019-03-12T11:45:58.125Z,8.59
2019-03-12T11:47:02.768Z,8.64
2019-03-12T11:48:10.248Z,8.47
2019-03-12T11:49:18.693Z,8.44
2019-03-12T11:50:26.681Z,8.50
2019-03-12T11:51:33.742Z,8.42
2019-03-12T11:52:41.191Z,8.36
2019-03-12T11:53:45.470Z,8.54
2019-03-12T11:54:49.730Z,8.53
2019-03-12T11:55:54.392Z,8.53
2019-03-12T11:56:58.721Z,8.50
2019-03-12T11:58:02.973Z,8.74
2019-03-12T11:59:07.261Z,9.13
2019-03-12T12:00:24.305Z,9.35
2019-03-12T12:01:31.602Z,9.21
2019-03-12T12:02:38.563Z,8.99
2019-03-12T12:03:45.981Z,8.62
2019-03-12T12:04:53.194Z,8.72
2019-03-12T12:05:57.475Z,8.76
2019-03-12T12:07:01.704Z,8.67
2019-03-12T12:08:06.009Z,8.54
2019-03-12T12:09:11.894Z,8.57
2019-03-12T12:10:19.496Z,8.60
2019-03-12T12:11:24.081Z,8.44
2019-03-12T12:12:31.285Z,8.49
2019-03-12T12:13:35.551Z,8.56
2019-03-12T12:14:40.191Z,8.55
2019-03-12T12:15:47.111Z,8.56
2019-03-12T12:16:51.363Z,8.62
2019-03-12T12:17:55.625Z,8.72
2019-03-12T12:18:59.869Z,8.81
2019-03-12T12:20:12.643Z,8.80
2019-03-12T12:21:16.911Z,8.76
2019-03-12T12:22:24.128Z,8.70
2019-03-12T12:23:28.377Z,8.67
2019-03-12T12:24:32.634Z,8.65
2019-03-12T12:25:39.888Z,8.75
2019-03-12T12:26:47.044Z,8.74
2019-03-12T12:27:54.246Z,8.78
2019-03-12T12:28:58.518Z,8.81
2019-03-12T12:30:03.209Z,8.82
2019-03-12T12:31:08.130Z,8.82
2019-03-12T12:32:15.346Z,8.73
2019-03-12T12:33:19.613Z,8.93
2019-03-12T12:34:26.884Z,8.94
2019-03-12T12:35:31.121Z,8.96
2019-03-12T12:36:38.485Z,8.89
2019-03-12T12:37:45.455Z,8.91
2019-03-12T12:38:52.740Z,8.94
2019-03-12T12:39:56.976Z,9.06
2019-03-12T12:41:01.549Z,9.20
2019-03-12T12:42:05.807Z,9.34
2019-03-12T12:43:10.084Z,9.50
2019-03-12T12:44:14.347Z,9.44
2019-03-12T12:45:29.922Z,9.54
2019-03-12T12:46:36.903Z,9.35
2019-03-12T12:47:42.417Z,9.34
2019-03-12T12:48:46.656Z,9.15
2019-03-12T12:49:50.932Z,9.10
2019-03-12T12:51:03.241Z,8.88
2019-03-12T12:52:03.843Z,9.00
2019-03-12T12:53:08.109Z,9.18
2019-03-12T12:54:12.361Z,9.36
2019-03-12T12:55:19.498Z,9.62
2019-03-12T12:56:23.745Z,9.86
2019-03-12T12:57:31.774Z,10.06
2019-03-12T12:58:36.057Z,10.16
2019-03-12T12:59:40.322Z,10.05
2019-03-12T13:00:47.489Z,10.12
2019-03-12T13:01:54.693Z,10.12
2019-03-12T13:02:59.038Z,10.05
2019-03-12T13:04:03.303Z,10.18
2019-03-12T13:05:07.864Z,10.35
2019-03-12T13:06:12.125Z,10.34
2019-03-12T13:07:19.168Z,10.41
2019-03-12T13:08:23.461Z,10.51
2019-03-12T13:09:30.887Z,10.39
2019-03-12T13:10:35.650Z,10.40
2019-03-12T13:11:40.114Z,10.49
2019-03-12T13:12:47.371Z,10.53
2019-03-12T13:13:51.648Z,10.46
2019-03-12T13:14:58.567Z,10.03
2019-03-12T13:16:02.837Z,10.06
2019-03-12T13:17:07.076Z,9.87
2019-03-12T13:18:11.353Z,9.87
2019-03-12T13:19:18.708Z,9.95
2019-03-12T13:20:25.700Z,9.96
2019-03-12T13:21:33.829Z,9.99
2019-03-12T13:22:40.859Z,10.06
2019-03-12T13:23:45.140Z,10.04
2019-03-12T13:24:49.405Z,9.93
2019-03-12T13:25:54.269Z,9.68
2019-03-12T13:26:58.778Z,9.69
2019-03-12T13:28:03.201Z,9.74
2019-03-12T13:29:10.699Z,9.57
2019-03-12T13:30:21.920Z,9.48
2019-03-12T13:31:28.366Z,9.58
2019-03-12T13:32:35.667Z,9.56
2019-03-12T13:33:40.122Z,9.78
2019-03-12T13:34:44.369Z,9.85
2019-03-12T13:35:51.919Z,10.03
2019-03-12T13:36:56.510Z,10.26
2019-03-12T13:38:01.138Z,10.08
2019-03-12T13:39:06.341Z,9.92
2019-03-12T13:40:20.815Z,9.83
2019-03-12T13:41:27.900Z,9.83
2019-03-12T13:42:34.821Z,9.75
2019-03-12T13:43:39.066Z,9.79
2019-03-12T13:44:43.657Z,9.71
2019-03-12T13:45:47.878Z,9.60
2019-03-12T13:46:55.141Z,9.56
2019-03-12T13:48:03.091Z,9.56
2019-03-12T13:49:07.682Z,9.54
2019-03-12T13:50:12.791Z,9.56
2019-03-12T13:51:17.029Z,9.55
2019-03-12T13:52:23.981Z,9.52
2019-03-12T13:53:28.423Z,9.49
2019-03-12T13:54:32.751Z,9.45
2019-03-12T13:55:40.305Z,9.39
2019-03-12T13:56:44.613Z,9.34
2019-03-12T13:57:48.847Z,9.36
2019-03-12T13:58:53.202Z,9.41
2019-03-12T14:00:01.038Z,9.27
2019-03-12T14:01:06.868Z,9.34
2019-03-12T14:02:11.119Z,9.38
2019-03-12T14:03:15.732Z,9.46
2019-03-12T14:04:20.008Z,9.47
2019-03-12T14:05:24.333Z,9.51
2019-03-12T14:06:31.434Z,9.64
2019-03-12T14:07:38.617Z,9.59
2019-03-12T14:08:43.326Z,9.65
2019-03-12T14:09:47.580Z,9.62
2019-03-12T14:10:54.763Z,9.59
2019-03-12T14:11:59.480Z,9.43
2019-03-12T14:13:03.750Z,9.47
2019-03-12T14:14:08.432Z,9.60
2019-03-12T14:15:32.703Z,9.61
2019-03-12T14:16:39.885Z,9.60
2019-03-12T14:17:44.145Z,9.61
2019-03-12T14:18:49.540Z,9.69
2019-03-12T14:19:53.788Z,9.67
2019-03-12T14:21:07.484Z,9.72
2019-03-12T14:22:12.051Z,9.67
2019-03-12T14:23:22.065Z,9.67
2019-03-12T14:24:29.252Z,9.69
2019-03-12T14:25:36.773Z,9.73
2019-03-12T14:26:44.149Z,9.65
2019-03-12T14:27:48.780Z,9.54
2019-03-12T14:28:54.029Z,9.50
2019-03-12T14:29:58.625Z,9.49
2019-03-12T14:31:03.242Z,9.48
2019-03-12T14:32:12.093Z,9.56
2019-03-12T14:33:19.236Z,9.49
2019-03-12T14:34:26.720Z,9.44
2019-03-12T14:35:29.459Z,9.45
2019-03-12T14:36:36.951Z,9.40
2019-03-12T14:37:43.926Z,9.50
2019-03-12T14:38:48.195Z,9.50
2019-03-12T14:39:55.411Z,9.48
2019-03-12T14:40:59.677Z,9.44
2019-03-12T14:42:03.938Z,9.33
2019-03-12T14:43:08.450Z,9.32
2019-03-12T14:44:12.727Z,9.35
2019-03-12T14:45:27.961Z,9.32
2019-03-12T14:46:35.816Z,9.25
2019-03-12T14:47:43.004Z,9.31
2019-03-12T14:48:52.465Z,9.21
2019-03-12T14:49:56.734Z,9.12
2019-03-12T14:51:00.983Z,9.14
2019-03-12T14:52:11.333Z,9.21
2019-03-12T14:53:21.860Z,9.15
2019-03-12T14:54:22.544Z,9.18
2019-03-12T14:55:26.770Z,9.22
2019-03-12T14:56:31.964Z,9.22
2019-03-12T14:57:36.206Z,9.17
2019-03-12T14:58:40.449Z,9.22
2019-03-12T14:59:44.875Z,9.09
2019-03-12T15:00:49.140Z,9.08
2019-03-12T15:01:53.787Z,9.06
2019-03-12T15:03:00.722Z,9.08
2019-03-12T15:04:04.983Z,9.06
2019-03-12T15:05:09.313Z,9.05